sensor_id;sensor_type;location;lat;lon;timestamp;P1;durP1;ratioP1;P2;durP2;ratioP2
32152;SDS011;18656;50.580;11.392;2022-08-18T00:01:21;6.13;;;5.63;;
32152;SDS011;18656;50.580;11.392;2022-08-18T00:03:50;6.97;;;6.47;;
32152;SDS011;18656;50.580;11.392;2022-08-18T00:06:28;8.85;;;5.65;;
32152;SDS011;18656;50.580;11.392;2022-08-18T00:08:59;7.07;;;6.32;;
32152;SDS011;18656;50.580;11.392;2022-08-18T00:11:27;6.85;;;6.15;;
32152;SDS011;18656;50.580;11.392;2022-08-18T00:14:08;7.28;;;6.18;;
32152;SDS011;18656;50.580;11.392;2022-08-18T00:16:39;9.00;;;6.20;;
32152;SDS011;18656;50.580;11.392;2022-08-18T00:19:06;7.03;;;6.32;;
32152;SDS011;18656;50.580;11.392;2022-08-18T00:21:35;6.75;;;6.15;;
32152;SDS011;18656;50.580;11.392;2022-08-18T00:24:02;8.77;;;6.38;;
32152;SDS011;18656;50.580;11.392;2022-08-18T00:26:30;6.68;;;6.13;;
32152;SDS011;18656;50.580;11.392;2022-08-18T00:29:02;7.43;;;6.57;;
32152;SDS011;18656;50.580;11.392;2022-08-18T00:31:29;7.38;;;6.55;;
32152;SDS011;18656;50.580;11.392;2022-08-18T00:33:57;7.05;;;6.45;;
32152;SDS011;18656;50.580;11.392;2022-08-18T00:36:24;7.25;;;6.10;;
32152;SDS011;18656;50.580;11.392;2022-08-18T00:38:52;7.60;;;6.15;;
32152;SDS011;18656;50.580;11.392;2022-08-18T00:41:20;6.60;;;6.03;;
32152;SDS011;18656;50.580;11.392;2022-08-18T00:43:53;9.23;;;6.38;;
32152;SDS011;18656;50.580;11.392;2022-08-18T00:46:22;7.45;;;6.78;;
32152;SDS011;18656;50.580;11.392;2022-08-18T00:48:50;7.03;;;6.35;;
32152;SDS011;18656;50.580;11.392;2022-08-18T00:51:20;6.72;;;6.20;;
32152;SDS011;18656;50.580;11.392;2022-08-18T00:53:50;7.03;;;6.47;;
32152;SDS011;18656;50.580;11.392;2022-08-18T00:56:23;11.95;;;7.10;;
32152;SDS011;18656;50.580;11.392;2022-08-18T00:58:52;7.75;;;6.45;;
32152;SDS011;18656;50.580;11.392;2022-08-18T01:01:21;8.82;;;6.38;;
32152;SDS011;18656;50.580;11.392;2022-08-18T01:03:51;10.30;;;6.57;;
32152;SDS011;18656;50.580;11.392;2022-08-18T01:06:32;7.25;;;6.65;;
32152;SDS011;18656;50.580;11.392;2022-08-18T01:09:00;6.90;;;6.40;;
32152;SDS011;18656;50.580;11.392;2022-08-18T01:11:28;7.97;;;7.18;;
32152;SDS011;18656;50.580;11.392;2022-08-18T01:13:56;6.57;;;6.07;;
32152;SDS011;18656;50.580;11.392;2022-08-18T01:16:24;9.45;;;6.63;;
32152;SDS011;18656;50.580;11.392;2022-08-18T01:19:22;8.05;;;6.63;;
32152;SDS011;18656;50.580;11.392;2022-08-18T01:22:28;7.65;;;6.85;;
32152;SDS011;18656;50.580;11.392;2022-08-18T01:24:56;7.45;;;6.50;;
32152;SDS011;18656;50.580;11.392;2022-08-18T01:27:42;8.95;;;6.97;;
32152;SDS011;18656;50.580;11.392;2022-08-18T01:30:14;7.65;;;6.80;;
32152;SDS011;18656;50.580;11.392;2022-08-18T01:32:42;8.30;;;7.07;;
32152;SDS011;18656;50.580;11.392;2022-08-18T01:35:14;6.35;;;5.85;;
32152;SDS011;18656;50.580;11.392;2022-08-18T01:37:42;8.35;;;6.68;;
32152;SDS011;18656;50.580;11.392;2022-08-18T01:40:11;7.70;;;7.00;;
32152;SDS011;18656;50.580;11.392;2022-08-18T01:42:58;11.27;;;7.38;;
32152;SDS011;18656;50.580;11.392;2022-08-18T01:45:28;12.13;;;7.00;;
32152;SDS011;18656;50.580;11.392;2022-08-18T01:47:58;7.20;;;6.47;;
32152;SDS011;18656;50.580;11.392;2022-08-18T01:50:26;10.68;;;7.35;;
32152;SDS011;18656;50.580;11.392;2022-08-18T01:52:53;8.55;;;7.30;;
32152;SDS011;18656;50.580;11.392;2022-08-18T01:55:20;8.30;;;6.60;;
32152;SDS011;18656;50.580;11.392;2022-08-18T01:57:47;7.88;;;7.07;;
32152;SDS011;18656;50.580;11.392;2022-08-18T02:00:16;7.78;;;7.05;;
32152;SDS011;18656;50.580;11.392;2022-08-18T02:02:44;7.60;;;6.95;;
32152;SDS011;18656;50.580;11.392;2022-08-18T02:05:26;9.73;;;7.32;;
32152;SDS011;18656;50.580;11.392;2022-08-18T02:07:56;7.68;;;7.07;;
32152;SDS011;18656;50.580;11.392;2022-08-18T02:10:23;11.13;;;7.30;;
32152;SDS011;18656;50.580;11.392;2022-08-18T02:12:51;9.18;;;7.03;;
32152;SDS011;18656;50.580;11.392;2022-08-18T02:15:18;8.77;;;6.85;;
32152;SDS011;18656;50.580;11.392;2022-08-18T02:17:45;7.93;;;7.22;;
32152;SDS011;18656;50.580;11.392;2022-08-18T02:20:14;9.18;;;7.10;;
32152;SDS011;18656;50.580;11.392;2022-08-18T02:22:42;12.10;;;7.38;;
32152;SDS011;18656;50.580;11.392;2022-08-18T02:25:10;10.05;;;6.65;;
32152;SDS011;18656;50.580;11.392;2022-08-18T02:27:37;8.05;;;7.20;;
32152;SDS011;18656;50.580;11.392;2022-08-18T02:30:06;7.35;;;6.85;;
32152;SDS011;18656;50.580;11.392;2022-08-18T02:32:34;7.88;;;7.18;;
32152;SDS011;18656;50.580;11.392;2022-08-18T02:35:01;8.38;;;7.57;;
32152;SDS011;18656;50.580;11.392;2022-08-18T02:37:31;9.10;;;7.55;;
32152;SDS011;18656;50.580;11.392;2022-08-18T02:39:58;8.15;;;7.25;;
32152;SDS011;18656;50.580;11.392;2022-08-18T02:42:26;7.93;;;7.13;;
32152;SDS011;18656;50.580;11.392;2022-08-18T02:44:53;8.15;;;7.32;;
32152;SDS011;18656;50.580;11.392;2022-08-18T02:47:21;8.55;;;7.80;;
32152;SDS011;18656;50.580;11.392;2022-08-18T02:49:48;8.32;;;7.70;;
32152;SDS011;18656;50.580;11.392;2022-08-18T02:52:15;10.30;;;7.63;;
32152;SDS011;18656;50.580;11.392;2022-08-18T02:54:42;8.68;;;7.20;;
32152;SDS011;18656;50.580;11.392;2022-08-18T02:57:11;9.60;;;7.85;;
32152;SDS011;18656;50.580;11.392;2022-08-18T02:59:38;8.75;;;8.02;;
32152;SDS011;18656;50.580;11.392;2022-08-18T03:02:07;9.30;;;8.25;;
32152;SDS011;18656;50.580;11.392;2022-08-18T03:04:35;8.10;;;7.38;;
32152;SDS011;18656;50.580;11.392;2022-08-18T03:07:03;8.55;;;7.75;;
32152;SDS011;18656;50.580;11.392;2022-08-18T03:09:31;9.02;;;8.00;;
32152;SDS011;18656;50.580;11.392;2022-08-18T03:11:59;8.60;;;7.75;;
32152;SDS011;18656;50.580;11.392;2022-08-18T03:14:27;8.90;;;8.20;;
32152;SDS011;18656;50.580;11.392;2022-08-18T03:16:54;8.40;;;7.60;;
32152;SDS011;18656;50.580;11.392;2022-08-18T03:19:23;8.82;;;8.02;;
32152;SDS011;18656;50.580;11.392;2022-08-18T03:21:50;8.95;;;8.05;;
32152;SDS011;18656;50.580;11.392;2022-08-18T03:24:18;8.88;;;7.97;;
32152;SDS011;18656;50.580;11.392;2022-08-18T03:26:48;8.38;;;7.28;;
32152;SDS011;18656;50.580;11.392;2022-08-18T03:29:16;8.82;;;7.93;;
32152;SDS011;18656;50.580;11.392;2022-08-18T03:31:43;8.27;;;7.38;;
32152;SDS011;18656;50.580;11.392;2022-08-18T03:34:11;8.23;;;7.55;;
32152;SDS011;18656;50.580;11.392;2022-08-18T03:36:38;7.93;;;7.32;;
32152;SDS011;18656;50.580;11.392;2022-08-18T03:39:08;9.05;;;7.47;;
32152;SDS011;18656;50.580;11.392;2022-08-18T03:41:37;8.60;;;7.80;;
32152;SDS011;18656;50.580;11.392;2022-08-18T03:44:25;9.02;;;7.55;;
32152;SDS011;18656;50.580;11.392;2022-08-18T03:46:53;9.68;;;8.13;;
32152;SDS011;18656;50.580;11.392;2022-08-18T03:49:20;13.48;;;8.05;;
32152;SDS011;18656;50.580;11.392;2022-08-18T03:51:47;8.45;;;7.65;;
32152;SDS011;18656;50.580;11.392;2022-08-18T03:54:16;8.60;;;7.80;;
32152;SDS011;18656;50.580;11.392;2022-08-18T03:56:44;7.70;;;7.15;;
32152;SDS011;18656;50.580;11.392;2022-08-18T03:59:13;8.85;;;8.15;;
32152;SDS011;18656;50.580;11.392;2022-08-18T04:01:43;9.35;;;8.00;;
32152;SDS011;18656;50.580;11.392;2022-08-18T04:04:12;8.32;;;7.45;;
32152;SDS011;18656;50.580;11.392;2022-08-18T04:06:44;8.93;;;8.02;;
32152;SDS011;18656;50.580;11.392;2022-08-18T04:09:14;8.40;;;7.13;;
32152;SDS011;18656;50.580;11.392;2022-08-18T04:11:42;9.18;;;8.13;;
32152;SDS011;18656;50.580;11.392;2022-08-18T04:14:11;9.68;;;7.70;;
32152;SDS011;18656;50.580;11.392;2022-08-18T04:16:39;8.88;;;7.95;;
32152;SDS011;18656;50.580;11.392;2022-08-18T04:19:06;9.10;;;8.20;;
32152;SDS011;18656;50.580;11.392;2022-08-18T04:21:35;10.52;;;8.05;;
32152;SDS011;18656;50.580;11.392;2022-08-18T04:24:03;9.38;;;8.40;;
32152;SDS011;18656;50.580;11.392;2022-08-18T04:26:31;10.68;;;8.40;;
32152;SDS011;18656;50.580;11.392;2022-08-18T04:28:59;10.32;;;8.30;;
32152;SDS011;18656;50.580;11.392;2022-08-18T04:31:27;11.85;;;8.18;;
32152;SDS011;18656;50.580;11.392;2022-08-18T04:33:55;9.00;;;8.18;;
32152;SDS011;18656;50.580;11.392;2022-08-18T04:36:22;9.02;;;8.07;;
32152;SDS011;18656;50.580;11.392;2022-08-18T04:38:50;10.32;;;8.68;;
32152;SDS011;18656;50.580;11.392;2022-08-18T04:41:21;12.75;;;8.55;;
32152;SDS011;18656;50.580;11.392;2022-08-18T04:43:53;11.48;;;7.75;;
32152;SDS011;18656;50.580;11.392;2022-08-18T04:46:20;12.00;;;8.38;;
32152;SDS011;18656;50.580;11.392;2022-08-18T04:48:49;9.60;;;8.55;;
32152;SDS011;18656;50.580;11.392;2022-08-18T04:51:18;9.63;;;8.30;;
32152;SDS011;18656;50.580;11.392;2022-08-18T04:54:05;11.52;;;8.75;;
32152;SDS011;18656;50.580;11.392;2022-08-18T04:56:35;10.80;;;8.00;;
32152;SDS011;18656;50.580;11.392;2022-08-18T04:59:12;17.30;;;8.80;;
32152;SDS011;18656;50.580;11.392;2022-08-18T05:01:41;9.07;;;8.18;;
32152;SDS011;18656;50.580;11.392;2022-08-18T05:04:11;8.55;;;7.68;;
32152;SDS011;18656;50.580;11.392;2022-08-18T05:06:39;9.80;;;8.18;;
32152;SDS011;18656;50.580;11.392;2022-08-18T05:09:09;10.65;;;7.90;;
32152;SDS011;18656;50.580;11.392;2022-08-18T05:11:36;11.43;;;8.15;;
32152;SDS011;18656;50.580;11.392;2022-08-18T05:14:05;11.20;;;8.27;;
32152;SDS011;18656;50.580;11.392;2022-08-18T05:16:33;11.05;;;8.20;;
32152;SDS011;18656;50.580;11.392;2022-08-18T05:19:14;13.93;;;8.52;;
32152;SDS011;18656;50.580;11.392;2022-08-18T05:21:44;9.32;;;8.20;;
32152;SDS011;18656;50.580;11.392;2022-08-18T05:24:16;9.00;;;8.13;;
32152;SDS011;18656;50.580;11.392;2022-08-18T05:26:43;9.27;;;8.45;;
32152;SDS011;18656;50.580;11.392;2022-08-18T05:29:11;9.07;;;8.25;;
32152;SDS011;18656;50.580;11.392;2022-08-18T05:31:45;9.40;;;8.48;;
32152;SDS011;18656;50.580;11.392;2022-08-18T05:34:12;9.13;;;8.32;;
32152;SDS011;18656;50.580;11.392;2022-08-18T05:39:34;16.05;;;9.68;;
32152;SDS011;18656;50.580;11.392;2022-08-18T05:42:05;14.27;;;9.38;;
32152;SDS011;18656;50.580;11.392;2022-08-18T05:44:34;22.02;;;9.82;;
32152;SDS011;18656;50.580;11.392;2022-08-18T05:47:12;13.15;;;8.93;;
32152;SDS011;18656;50.580;11.392;2022-08-18T05:49:40;12.50;;;9.30;;
32152;SDS011;18656;50.580;11.392;2022-08-18T05:52:11;10.15;;;9.30;;
32152;SDS011;18656;50.580;11.392;2022-08-18T05:54:42;11.35;;;10.15;;
32152;SDS011;18656;50.580;11.392;2022-08-18T05:57:31;13.95;;;8.15;;
32152;SDS011;18656;50.580;11.392;2022-08-18T05:59:59;16.67;;;13.02;;
32152;SDS011;18656;50.580;11.392;2022-08-18T06:02:31;15.50;;;13.95;;
32152;SDS011;18656;50.580;11.392;2022-08-18T06:05:00;17.27;;;12.90;;
32152;SDS011;18656;50.580;11.392;2022-08-18T06:07:36;12.93;;;9.43;;
32152;SDS011;18656;50.580;11.392;2022-08-18T06:10:07;12.20;;;9.00;;
32152;SDS011;18656;50.580;11.392;2022-08-18T06:12:36;10.82;;;8.98;;
32152;SDS011;18656;50.580;11.392;2022-08-18T06:17:40;13.05;;;9.90;;
32152;SDS011;18656;50.580;11.392;2022-08-18T06:20:14;19.08;;;10.00;;
32152;SDS011;18656;50.580;11.392;2022-08-18T06:23:03;14.00;;;9.50;;
32152;SDS011;18656;50.580;11.392;2022-08-18T06:25:34;10.07;;;9.02;;
32152;SDS011;18656;50.580;11.392;2022-08-18T06:28:05;18.10;;;9.98;;
32152;SDS011;18656;50.580;11.392;2022-08-18T06:30:54;16.30;;;8.98;;
32152;SDS011;18656;50.580;11.392;2022-08-18T06:35:51;25.27;;;10.18;;
32152;SDS011;18656;50.580;11.392;2022-08-18T06:38:33;17.10;;;9.85;;
32152;SDS011;18656;50.580;11.392;2022-08-18T06:41:09;13.52;;;10.35;;
32152;SDS011;18656;50.580;11.392;2022-08-18T06:44:02;12.63;;;9.93;;
32152;SDS011;18656;50.580;11.392;2022-08-18T06:49:34;10.60;;;9.32;;
32152;SDS011;18656;50.580;11.392;2022-08-18T06:54:49;10.93;;;9.52;;
32152;SDS011;18656;50.580;11.392;2022-08-18T06:58:01;12.25;;;9.63;;
32152;SDS011;18656;50.580;11.392;2022-08-18T07:00:27;15.75;;;9.68;;
32152;SDS011;18656;50.580;11.392;2022-08-18T07:05:31;33.65;;;11.73;;
32152;SDS011;18656;50.580;11.392;2022-08-18T07:08:13;15.45;;;9.57;;
32152;SDS011;18656;50.580;11.392;2022-08-18T07:10:45;14.65;;;9.25;;
32152;SDS011;18656;50.580;11.392;2022-08-18T07:13:21;24.80;;;10.27;;
32152;SDS011;18656;50.580;11.392;2022-08-18T07:15:48;20.63;;;9.63;;
32152;SDS011;18656;50.580;11.392;2022-08-18T07:18:20;16.13;;;8.93;;
32152;SDS011;18656;50.580;11.392;2022-08-18T07:20:55;12.27;;;9.07;;
32152;SDS011;18656;50.580;11.392;2022-08-18T07:23:36;13.07;;;9.35;;
32152;SDS011;18656;50.580;11.392;2022-08-18T07:26:05;16.10;;;10.05;;
32152;SDS011;18656;50.580;11.392;2022-08-18T07:31:16;12.80;;;10.82;;
32152;SDS011;18656;50.580;11.392;2022-08-18T07:33:47;13.48;;;11.20;;
32152;SDS011;18656;50.580;11.392;2022-08-18T07:36:16;16.67;;;12.68;;
32152;SDS011;18656;50.580;11.392;2022-08-18T07:38:53;18.25;;;12.73;;
32152;SDS011;18656;50.580;11.392;2022-08-18T07:41:26;20.02;;;13.27;;
32152;SDS011;18656;50.580;11.392;2022-08-18T07:44:04;26.20;;;15.50;;
32152;SDS011;18656;50.580;11.392;2022-08-18T07:47:26;19.70;;;15.93;;
32152;SDS011;18656;50.580;11.392;2022-08-18T07:49:28;19.40;;;16.42;;
32152;SDS011;18656;50.580;11.392;2022-08-18T07:52:04;21.77;;;17.20;;
32152;SDS011;18656;50.580;11.392;2022-08-18T07:55:06;20.65;;;16.45;;
32152;SDS011;18656;50.580;11.392;2022-08-18T08:05:24;21.55;;;15.95;;
32152;SDS011;18656;50.580;11.392;2022-08-18T08:08:07;22.63;;;17.58;;
32152;SDS011;18656;50.580;11.392;2022-08-18T08:10:42;20.10;;;17.08;;
32152;SDS011;18656;50.580;11.392;2022-08-18T08:13:22;23.65;;;18.45;;
32152;SDS011;18656;50.580;11.392;2022-08-18T08:16:19;19.60;;;17.20;;
32152;SDS011;18656;50.580;11.392;2022-08-18T08:18:58;20.75;;;18.42;;
32152;SDS011;18656;50.580;11.392;2022-08-18T08:21:39;33.38;;;18.50;;
32152;SDS011;18656;50.580;11.392;2022-08-18T08:24:19;20.73;;;16.67;;
32152;SDS011;18656;50.580;11.392;2022-08-18T08:27:01;21.08;;;16.17;;
32152;SDS011;18656;50.580;11.392;2022-08-18T08:30:06;21.23;;;16.80;;
32152;SDS011;18656;50.580;11.392;2022-08-18T08:32:33;18.35;;;15.63;;
32152;SDS011;18656;50.580;11.392;2022-08-18T08:39:59;19.67;;;14.50;;
32152;SDS011;18656;50.580;11.392;2022-08-18T08:45:07;15.55;;;13.90;;
32152;SDS011;18656;50.580;11.392;2022-08-18T08:47:37;22.33;;;14.50;;
32152;SDS011;18656;50.580;11.392;2022-08-18T08:50:10;25.85;;;17.15;;
32152;SDS011;18656;50.580;11.392;2022-08-18T08:52:44;19.88;;;14.55;;
32152;SDS011;18656;50.580;11.392;2022-08-18T08:55:14;29.45;;;16.27;;
32152;SDS011;18656;50.580;11.392;2022-08-18T08:57:48;30.90;;;15.65;;
32152;SDS011;18656;50.580;11.392;2022-08-18T09:00:16;25.98;;;16.10;;
32152;SDS011;18656;50.580;11.392;2022-08-18T09:05:33;20.50;;;15.30;;
32152;SDS011;18656;50.580;11.392;2022-08-18T09:08:07;21.23;;;13.90;;
32152;SDS011;18656;50.580;11.392;2022-08-18T09:16:12;18.65;;;15.05;;
32152;SDS011;18656;50.580;11.392;2022-08-18T09:18:50;16.88;;;14.50;;
32152;SDS011;18656;50.580;11.392;2022-08-18T09:24:03;19.92;;;15.20;;
32152;SDS011;18656;50.580;11.392;2022-08-18T09:29:12;15.52;;;13.25;;
32152;SDS011;18656;50.580;11.392;2022-08-18T09:31:40;27.33;;;17.02;;
32152;SDS011;18656;50.580;11.392;2022-08-18T09:39:42;17.27;;;15.40;;
32152;SDS011;18656;50.580;11.392;2022-08-18T09:42:31;19.80;;;15.35;;
32152;SDS011;18656;50.580;11.392;2022-08-18T09:50:37;16.90;;;15.05;;
32152;SDS011;18656;50.580;11.392;2022-08-18T09:55:52;27.60;;;18.10;;
32152;SDS011;18656;50.580;11.392;2022-08-18T10:03:42;30.63;;;17.45;;
32152;SDS011;18656;50.580;11.392;2022-08-18T10:06:13;26.98;;;18.20;;
32152;SDS011;18656;50.580;11.392;2022-08-18T10:08:53;27.02;;;20.58;;
32152;SDS011;18656;50.580;11.392;2022-08-18T10:11:38;25.83;;;19.33;;
32152;SDS011;18656;50.580;11.392;2022-08-18T10:16:57;25.35;;;17.98;;
32152;SDS011;18656;50.580;11.392;2022-08-18T10:19:59;24.35;;;18.63;;
32152;SDS011;18656;50.580;11.392;2022-08-18T10:22:35;25.05;;;17.60;;
32152;SDS011;18656;50.580;11.392;2022-08-18T10:25:02;19.77;;;17.73;;
32152;SDS011;18656;50.580;11.392;2022-08-18T10:27:49;17.52;;;15.45;;
32152;SDS011;18656;50.580;11.392;2022-08-18T10:36:05;21.83;;;16.48;;
32152;SDS011;18656;50.580;11.392;2022-08-18T10:38:37;17.05;;;15.23;;
32152;SDS011;18656;50.580;11.392;2022-08-18T10:41:21;21.13;;;13.38;;
32152;SDS011;18656;50.580;11.392;2022-08-18T10:43:50;18.02;;;15.23;;
32152;SDS011;18656;50.580;11.392;2022-08-18T10:46:24;19.17;;;13.57;;
32152;SDS011;18656;50.580;11.392;2022-08-18T10:49:06;14.13;;;12.82;;
32152;SDS011;18656;50.580;11.392;2022-08-18T10:52:17;16.70;;;13.82;;
32152;SDS011;18656;50.580;11.392;2022-08-18T10:57:46;16.38;;;13.02;;
32152;SDS011;18656;50.580;11.392;2022-08-18T11:00:08;12.27;;;11.02;;
32152;SDS011;18656;50.580;11.392;2022-08-18T11:02:54;15.55;;;11.35;;
32152;SDS011;18656;50.580;11.392;2022-08-18T11:05:45;14.52;;;13.05;;
32152;SDS011;18656;50.580;11.392;2022-08-18T11:08:13;14.80;;;13.23;;
32152;SDS011;18656;50.580;11.392;2022-08-18T11:10:43;15.45;;;13.80;;
32152;SDS011;18656;50.580;11.392;2022-08-18T11:13:57;14.75;;;13.20;;
32152;SDS011;18656;50.580;11.392;2022-08-18T11:16:42;17.27;;;15.15;;
32152;SDS011;18656;50.580;11.392;2022-08-18T11:19:12;18.10;;;14.52;;
32152;SDS011;18656;50.580;11.392;2022-08-18T11:21:43;16.70;;;14.48;;
32152;SDS011;18656;50.580;11.392;2022-08-18T11:24:23;28.60;;;14.77;;
32152;SDS011;18656;50.580;11.392;2022-08-18T11:29:23;14.95;;;13.55;;
32152;SDS011;18656;50.580;11.392;2022-08-18T11:31:53;16.80;;;13.65;;
32152;SDS011;18656;50.580;11.392;2022-08-18T11:34:45;14.50;;;13.10;;
32152;SDS011;18656;50.580;11.392;2022-08-18T11:38:02;17.08;;;13.75;;
32152;SDS011;18656;50.580;11.392;2022-08-18T11:58:40;14.38;;;10.70;;
32152;SDS011;18656;50.580;11.392;2022-08-18T12:01:35;11.65;;;10.55;;
32152;SDS011;18656;50.580;11.392;2022-08-18T12:07:14;10.60;;;9.80;;
32152;SDS011;18656;50.580;11.392;2022-08-18T12:12:45;12.50;;;11.25;;
32152;SDS011;18656;50.580;11.392;2022-08-18T12:17:49;13.10;;;11.10;;
32152;SDS011;18656;50.580;11.392;2022-08-18T12:20:19;12.30;;;11.00;;
32152;SDS011;18656;50.580;11.392;2022-08-18T12:22:47;13.82;;;12.55;;
32152;SDS011;18656;50.580;11.392;2022-08-18T12:25:16;17.25;;;13.77;;
32152;SDS011;18656;50.580;11.392;2022-08-18T12:27:50;18.08;;;11.90;;
32152;SDS011;18656;50.580;11.392;2022-08-18T12:30:17;9.98;;;9.07;;
32152;SDS011;18656;50.580;11.392;2022-08-18T12:32:45;14.48;;;12.52;;
32152;SDS011;18656;50.580;11.392;2022-08-18T12:35:20;13.30;;;11.38;;
32152;SDS011;18656;50.580;11.392;2022-08-18T12:37:50;10.88;;;10.05;;
32152;SDS011;18656;50.580;11.392;2022-08-18T12:40:37;12.05;;;9.23;;
32152;SDS011;18656;50.580;11.392;2022-08-18T12:43:05;8.13;;;7.43;;
32152;SDS011;18656;50.580;11.392;2022-08-18T12:45:32;10.82;;;8.40;;
32152;SDS011;18656;50.580;11.392;2022-08-18T12:48:03;8.30;;;7.50;;
32152;SDS011;18656;50.580;11.392;2022-08-18T12:50:32;8.98;;;7.75;;
32152;SDS011;18656;50.580;11.392;2022-08-18T12:53:20;10.07;;;9.07;;
32152;SDS011;18656;50.580;11.392;2022-08-18T12:56:04;11.35;;;8.27;;
32152;SDS011;18656;50.580;11.392;2022-08-18T12:58:35;9.13;;;8.25;;
32152;SDS011;18656;50.580;11.392;2022-08-18T13:01:05;8.48;;;7.70;;
32152;SDS011;18656;50.580;11.392;2022-08-18T13:03:32;9.52;;;8.40;;
32152;SDS011;18656;50.580;11.392;2022-08-18T13:06:02;8.77;;;7.82;;
32152;SDS011;18656;50.580;11.392;2022-08-18T13:08:31;8.73;;;7.90;;
32152;SDS011;18656;50.580;11.392;2022-08-18T13:11:12;8.15;;;7.35;;
32152;SDS011;18656;50.580;11.392;2022-08-18T13:13:50;12.25;;;8.52;;
32152;SDS011;18656;50.580;11.392;2022-08-18T13:16:22;9.05;;;8.18;;
32152;SDS011;18656;50.580;11.392;2022-08-18T13:19:04;10.10;;;8.50;;
32152;SDS011;18656;50.580;11.392;2022-08-18T13:21:32;10.57;;;8.52;;
32152;SDS011;18656;50.580;11.392;2022-08-18T13:24:06;11.88;;;9.88;;
32152;SDS011;18656;50.580;11.392;2022-08-18T13:26:36;9.45;;;7.88;;
32152;SDS011;18656;50.580;11.392;2022-08-18T13:29:06;9.30;;;7.00;;
32152;SDS011;18656;50.580;11.392;2022-08-18T13:31:35;8.88;;;7.35;;
32152;SDS011;18656;50.580;11.392;2022-08-18T13:34:04;16.45;;;9.52;;
32152;SDS011;18656;50.580;11.392;2022-08-18T13:36:40;13.85;;;9.43;;
32152;SDS011;18656;50.580;11.392;2022-08-18T13:39:13;14.52;;;9.13;;
32152;SDS011;18656;50.580;11.392;2022-08-18T13:41:41;12.35;;;8.07;;
32152;SDS011;18656;50.580;11.392;2022-08-18T13:44:11;12.88;;;7.97;;
32152;SDS011;18656;50.580;11.392;2022-08-18T13:46:45;8.43;;;7.45;;
32152;SDS011;18656;50.580;11.392;2022-08-18T13:49:13;11.20;;;7.85;;
32152;SDS011;18656;50.580;11.392;2022-08-18T13:51:49;8.30;;;7.18;;
32152;SDS011;18656;50.580;11.392;2022-08-18T13:54:17;7.82;;;7.00;;
32152;SDS011;18656;50.580;11.392;2022-08-18T13:56:56;8.52;;;7.72;;
32152;SDS011;18656;50.580;11.392;2022-08-18T13:59:23;9.02;;;7.55;;
32152;SDS011;18656;50.580;11.392;2022-08-18T14:01:56;10.03;;;7.70;;
32152;SDS011;18656;50.580;11.392;2022-08-18T14:04:25;13.68;;;7.70;;
32152;SDS011;18656;50.580;11.392;2022-08-18T14:06:53;11.45;;;8.23;;
32152;SDS011;18656;50.580;11.392;2022-08-18T14:09:26;12.57;;;8.50;;
32152;SDS011;18656;50.580;11.392;2022-08-18T14:12:04;8.13;;;7.32;;
32152;SDS011;18656;50.580;11.392;2022-08-18T14:14:31;12.85;;;7.97;;
32152;SDS011;18656;50.580;11.392;2022-08-18T14:16:59;11.48;;;8.00;;
32152;SDS011;18656;50.580;11.392;2022-08-18T14:19:26;8.82;;;7.93;;
32152;SDS011;18656;50.580;11.392;2022-08-18T14:22:12;9.43;;;6.80;;
32152;SDS011;18656;50.580;11.392;2022-08-18T14:25:00;9.13;;;8.18;;
32152;SDS011;18656;50.580;11.392;2022-08-18T14:27:48;10.68;;;6.75;;
32152;SDS011;18656;50.580;11.392;2022-08-18T14:30:22;7.40;;;6.65;;
32152;SDS011;18656;50.580;11.392;2022-08-18T14:32:50;10.27;;;5.82;;
32152;SDS011;18656;50.580;11.392;2022-08-18T14:35:19;11.65;;;6.25;;
32152;SDS011;18656;50.580;11.392;2022-08-18T14:37:59;5.07;;;4.70;;
32152;SDS011;18656;50.580;11.392;2022-08-18T14:40:27;6.13;;;5.53;;
32152;SDS011;18656;50.580;11.392;2022-08-18T14:42:55;9.35;;;5.35;;
32152;SDS011;18656;50.580;11.392;2022-08-18T14:45:23;4.95;;;4.50;;
32152;SDS011;18656;50.580;11.392;2022-08-18T14:47:59;5.85;;;5.25;;
32152;SDS011;18656;50.580;11.392;2022-08-18T14:50:31;8.00;;;4.65;;
32152;SDS011;18656;50.580;11.392;2022-08-18T14:53:00;5.82;;;4.97;;
32152;SDS011;18656;50.580;11.392;2022-08-18T14:55:27;5.20;;;4.75;;
32152;SDS011;18656;50.580;11.392;2022-08-18T14:57:56;5.70;;;5.00;;
32152;SDS011;18656;50.580;11.392;2022-08-18T15:00:25;5.80;;;5.30;;
32152;SDS011;18656;50.580;11.392;2022-08-18T15:02:52;7.07;;;4.95;;
32152;SDS011;18656;50.580;11.392;2022-08-18T15:05:20;6.45;;;4.70;;
32152;SDS011;18656;50.580;11.392;2022-08-18T15:07:50;6.95;;;5.40;;
32152;SDS011;18656;50.580;11.392;2022-08-18T15:10:18;9.02;;;5.75;;
32152;SDS011;18656;50.580;11.392;2022-08-18T15:12:53;6.63;;;6.00;;
32152;SDS011;18656;50.580;11.392;2022-08-18T15:15:20;8.75;;;5.85;;
32152;SDS011;18656;50.580;11.392;2022-08-18T15:17:48;7.53;;;6.00;;
32152;SDS011;18656;50.580;11.392;2022-08-18T15:20:18;7.65;;;6.80;;
32152;SDS011;18656;50.580;11.392;2022-08-18T15:22:54;7.25;;;6.13;;
32152;SDS011;18656;50.580;11.392;2022-08-18T15:25:48;6.57;;;5.85;;
32152;SDS011;18656;50.580;11.392;2022-08-18T15:28:18;11.93;;;8.27;;
32152;SDS011;18656;50.580;11.392;2022-08-18T15:30:46;10.05;;;7.15;;
32152;SDS011;18656;50.580;11.392;2022-08-18T15:33:16;6.65;;;5.68;;
32152;SDS011;18656;50.580;11.392;2022-08-18T15:35:48;7.60;;;5.70;;
32152;SDS011;18656;50.580;11.392;2022-08-18T15:38:17;7.57;;;5.68;;
32152;SDS011;18656;50.580;11.392;2022-08-18T15:40:48;7.68;;;5.40;;
32152;SDS011;18656;50.580;11.392;2022-08-18T15:43:22;9.45;;;5.03;;
32152;SDS011;18656;50.580;11.392;2022-08-18T15:45:54;8.85;;;5.85;;
32152;SDS011;18656;50.580;11.392;2022-08-18T15:48:24;7.68;;;6.55;;
32152;SDS011;18656;50.580;11.392;2022-08-18T15:50:51;6.63;;;6.07;;
32152;SDS011;18656;50.580;11.392;2022-08-18T15:53:20;7.10;;;6.32;;
32152;SDS011;18656;50.580;11.392;2022-08-18T15:55:48;7.72;;;6.90;;
32152;SDS011;18656;50.580;11.392;2022-08-18T15:58:16;10.95;;;7.25;;
32152;SDS011;18656;50.580;11.392;2022-08-18T16:00:47;8.63;;;6.78;;
32152;SDS011;18656;50.580;11.392;2022-08-18T16:03:16;8.23;;;6.40;;
32152;SDS011;18656;50.580;11.392;2022-08-18T16:05:49;9.45;;;5.80;;
32152;SDS011;18656;50.580;11.392;2022-08-18T16:08:18;7.55;;;6.63;;
32152;SDS011;18656;50.580;11.392;2022-08-18T16:10:46;7.80;;;6.97;;
32152;SDS011;18656;50.580;11.392;2022-08-18T16:13:14;7.22;;;6.68;;
32152;SDS011;18656;50.580;11.392;2022-08-18T16:15:42;9.70;;;7.07;;
32152;SDS011;18656;50.580;11.392;2022-08-18T16:18:12;7.28;;;6.57;;
32152;SDS011;18656;50.580;11.392;2022-08-18T16:20:40;9.07;;;6.25;;
32152;SDS011;18656;50.580;11.392;2022-08-18T16:23:08;7.22;;;6.50;;
32152;SDS011;18656;50.580;11.392;2022-08-18T16:25:37;8.35;;;6.57;;
32152;SDS011;18656;50.580;11.392;2022-08-18T16:28:05;8.50;;;6.63;;
32152;SDS011;18656;50.580;11.392;2022-08-18T16:30:33;8.13;;;5.93;;
32152;SDS011;18656;50.580;11.392;2022-08-18T16:33:01;8.18;;;6.30;;
32152;SDS011;18656;50.580;11.392;2022-08-18T16:35:29;10.93;;;6.47;;
32152;SDS011;18656;50.580;11.392;2022-08-18T16:38:00;7.03;;;5.80;;
32152;SDS011;18656;50.580;11.392;2022-08-18T16:40:29;7.72;;;5.80;;
32152;SDS011;18656;50.580;11.392;2022-08-18T16:42:56;6.38;;;5.85;;
32152;SDS011;18656;50.580;11.392;2022-08-18T16:45:26;9.00;;;6.57;;